Flag for USA

Past Weather in Sandpoint, Idaho, USA — Yesterday and Last 2 Weeks

Currently: 23 °F. Overcast. (Weather station: Sandpoint Airport, USA). See more current weather

Past Weather in Sandpoint — Graph

°F

Sandpoint Temperature Yesterday

Maximum temperature yesterday: 28 °F (at 1:55 pm)
Minimum temperature yesterday: 14 °F (at 1:35 am)
Average temperature yesterday: 21 °F

High & Low Weather Summary for the Past Weeks

 TemperatureHumidityPressure
High48 °F (Jan 13, 5:35 am)100% (Jan 9, 7:35 am)30.59 "Hg (Jan 9, 7:35 am)
Low14 °F (Jan 23, 1:35 am)39% (Jan 13, 2:15 pm)29.47 "Hg (Jan 13, 3:55 am)
Average31 °F85%30.22 "Hg
* Reported Jan 9 7:35 am — Jan 24 7:35 am, Sandpoint. Weather by CustomWeather, © 2021

Note: Actual official high and low records may vary slightly from our data, if they occured in-between our weather recording intervals... More about our weather records

Sandpoint Weather History for the Previous 24 Hours

Scroll right to see more
 ConditionsComfort  
Time TempWeatherWind HumidityBarometerVisibility
7:35 am
Sun, Jan 24
23 °FOvercast.5 mph74%29.86 "Hg10 mi
7:15 am21 °FMostly cloudy.3 mph80%29.86 "Hg10 mi
6:55 am21 °FOvercast.No wind80%29.86 "Hg10 mi
6:35 am21 °FOvercast.5 mph80%29.86 "Hg10 mi
6:15 am21 °FOvercast.No wind80%29.87 "Hg10 mi
5:35 am21 °FOvercast.3 mph80%29.87 "Hg10 mi
5:15 am23 °FOvercast.3 mph74%29.87 "Hg10 mi
4:55 am21 °FOvercast.No wind80%29.88 "Hg10 mi
4:35 am21 °FOvercast.5 mph80%29.88 "Hg10 mi
4:15 am21 °FOvercast.5 mph80%29.88 "Hg10 mi
3:55 am21 °FOvercast.5 mph74%29.89 "Hg10 mi
3:35 am21 °FOvercast.5 mph80%29.90 "Hg10 mi
3:15 am21 °FOvercast.6 mph80%29.90 "Hg10 mi
2:55 am21 °FOvercast.5 mph80%29.91 "Hg10 mi
2:35 am23 °FOvercast.No wind74%29.92 "Hg10 mi
2:15 am23 °FOvercast.No wind80%29.92 "Hg10 mi
1:55 am23 °FOvercast.3 mph74%29.92 "Hg10 mi
1:35 am23 °FOvercast.3 mph74%29.92 "Hg10 mi
1:15 am23 °FOvercast.6 mph74%29.93 "Hg10 mi
12:55 am23 °FMostly cloudy.5 mph74%29.93 "Hg10 mi
12:35 am23 °FOvercast.5 mph80%29.93 "Hg10 mi
12:15 am23 °FOvercast.5 mph80%29.94 "Hg10 mi
11:55 pm
Sat, Jan 23
23 °FOvercast.3 mph86%29.94 "Hg10 mi
11:35 pm25 °FOvercast.No wind80%29.95 "Hg10 mi
10:55 pm25 °FOvercast.No wind74%29.96 "Hg10 mi
10:35 pm25 °FOvercast.No wind74%29.97 "Hg10 mi
10:15 pm25 °FOvercast.3 mph74%29.97 "Hg10 mi
9:55 pm25 °FOvercast.No wind74%29.98 "Hg10 mi
9:35 pm25 °FOvercast.5 mph80%29.98 "Hg10 mi
9:15 pm27 °FOvercast.3 mph74%29.99 "Hg10 mi
8:55 pm27 °FOvercast.No wind74%30.00 "Hg10 mi
8:35 pm27 °FOvercast.No wind74%30.00 "Hg10 mi
8:15 pm27 °FOvercast.No wind74%30.00 "Hg10 mi
7:55 pm27 °FOvercast.No wind74%30.00 "Hg10 mi
7:35 pm27 °FOvercast.No wind74%30.00 "Hg10 mi
7:15 pm27 °FOvercast.No wind74%30.01 "Hg10 mi
6:55 pm27 °FOvercast.No wind74%30.02 "Hg10 mi
6:35 pm27 °FOvercast.No wind74%30.03 "Hg10 mi
5:55 pm27 °FOvercast.No wind74%30.04 "Hg10 mi
5:35 pm27 °FOvercast.5 mph74%30.03 "Hg10 mi
4:55 pm27 °FPassing clouds.No wind74%30.04 "Hg10 mi
4:15 pm28 °FSunny.No wind64%30.04 "Hg10 mi
3:55 pm28 °FScattered clouds.No wind64%30.05 "Hg10 mi
3:35 pm28 °FPartly sunny.3 mph64%30.05 "Hg10 mi
3:15 pm28 °FPartly sunny.6 mph69%30.06 "Hg10 mi
2:55 pm28 °FOvercast.No wind69%30.05 "Hg10 mi
2:35 pm28 °FOvercast.3 mph69%30.06 "Hg10 mi
1:55 pm28 °FOvercast.No wind69%30.06 "Hg10 mi
1:35 pm27 °FOvercast.No wind74%30.07 "Hg10 mi
1:15 pm27 °FOvercast.3 mph74%30.07 "Hg10 mi
12:55 pm27 °FOvercast.3 mph74%30.07 "Hg10 mi
12:35 pm27 °FOvercast.6 mph74%30.08 "Hg10 mi
12:15 pm25 °FOvercast.3 mph80%30.09 "Hg10 mi
11:35 am23 °FOvercast.No wind80%30.09 "Hg10 mi
11:15 am23 °FOvercast.No wind80%30.10 "Hg10 mi
10:55 am23 °FOvercast.No wind80%30.10 "Hg10 mi
10:35 am23 °FOvercast.No wind80%30.10 "Hg10 mi
10:15 am23 °FOvercast.No wind80%30.11 "Hg10 mi
9:55 am21 °FOvercast.No wind86%30.10 "Hg10 mi
9:35 am21 °FOvercast.No wind86%30.10 "Hg10 mi
9:15 am19 °FOvercast.No wind93%30.10 "Hg10 mi
8:55 am19 °FOvercast.No wind86%30.10 "Hg10 mi
8:35 am18 °FOvercast.No wind86%30.09 "Hg10 mi
8:15 am16 °FOvercast.No wind93%30.08 "Hg10 mi
Weather by CustomWeather, © 2021

See weather overview